Latest Weather Observations for Wilsons Promontory

IDV60801

Issued at 6:35 pm EST Thursday 28 August 2014 (issued every 30 minutes, with the page automatically refreshed every 10 minutes)

About weather observations | Map of weather stations | Latest weather observations for VIC | Other Formats
Station Details ID: 085096 Name: WILSONS PROMONTORY LIGHTHOUSE Lat: -39.13 Lon: 146.42 Height: 95.0 m
Data from the previous 72 hours. | See also: Recent months at Wilsons Promontory
Date/Time
EST
Temp
°C
App
Temp
°C
Dew
Point
Rel
Hum
%
Delta-T
°C
Wind Press
QNH
hPa
Press
MSL
hPa
Rain
since 9 am
mm
Dir
 
Spd
km/h
Gust
km/h
Spd
kts
Gust
kts
28/06:30pm 11.6 6.8 7.5 76 2.0 NNE 22 26 12 14 1027.8 - 0.0
28/06:00pm 11.6 6.9 7.7 77 1.9 NNE 22 26 12 14 1027.6 1027.7 0.0
28/05:30pm 11.8 7.6 8.3 79 1.7 NNE 20 24 11 13 1027.5 - 0.0
28/05:00pm 12.1 8.3 8.9 81 1.6 NNE 19 20 10 11 1027.3 - 0.0
28/04:30pm 12.4 9.0 9.1 80 1.7 NNE 17 20 9 11 1027.3 - 0.0
28/04:00pm 12.9 9.5 9.0 77 2.0 NNE 17 20 9 11 1027.3 - 0.0
28/03:30pm 13.2 9.8 9.3 77 2.0 NNE 17 20 9 11 1027.3 - 0.0
28/03:00pm 13.8 10.1 9.5 75 2.2 NNE 19 20 10 11 1027.3 1027.4 0.0
28/02:30pm 13.6 9.9 9.3 75 2.2 NNE 19 22 10 12 1027.4 - 0.0
28/02:00pm 13.7 9.0 9.4 75 2.2 NNE 24 28 13 15 1027.3 - 0.0
28/01:30pm 13.2 8.0 8.7 74 2.3 NE 26 30 14 16 1027.4 - 0.0
28/01:00pm 13.8 9.4 9.0 73 2.4 NE 22 28 12 15 1027.7 - 0.0
28/12:30pm 14.5 9.9 9.7 73 2.5 NE 24 28 13 15 1028.0 - 0.0
28/12:00pm 14.5 10.3 9.7 73 2.5 NE 22 28 12 15 1028.3 1028.4 0.0
28/11:30am 14.5 10.2 9.3 71 2.7 NE 22 28 12 15 1028.6 - 0.0
28/11:00am 15.2 11.0 8.4 64 3.4 NE 20 26 11 14 1028.8 - 0.0
28/10:30am 15.2 10.1 7.7 61 3.8 NNE 24 32 13 17 1028.9 - 0.0
28/10:00am 15.0 9.6 7.8 62 3.6 NNE 26 35 14 19 1029.0 - 0.0
28/09:30am 14.1 8.9 7.4 64 3.3 NNE 24 32 13 17 1029.2 - 0.0
28/09:00am 14.0 9.2 7.5 65 3.2 NNE 22 30 12 16 1029.2 1029.3 0.0
28/08:30am 14.2 9.7 8.4 68 2.9 NNE 22 32 12 17 1029.0 - 0.0
28/08:00am 13.6 8.3 8.4 71 2.6 NNE 26 37 14 20 1028.7 - 0.0
28/07:30am 12.8 7.9 8.3 74 2.2 NNE 24 33 13 18 1028.7 - 0.0
28/07:00am 12.1 6.7 8.0 76 2.0 NNE 26 35 14 19 1028.5 - 0.0
28/06:30am 11.8 6.7 7.7 76 2.0 NNE 24 32 13 17 1028.4 - 0.0
28/06:00am 11.7 7.0 7.6 76 2.0 NNE 22 30 12 16 1028.3 1028.4 0.0
28/05:30am 11.8 7.4 7.5 75 2.1 NNE 20 28 11 15 1028.2 - 0.0
28/05:00am 11.9 7.5 7.6 75 2.1 NNE 20 28 11 15 1028.1 - 0.0
28/04:30am 11.9 7.6 7.8 76 2.0 N 20 30 11 16 1028.2 - 0.0
28/04:00am 12.1 7.4 7.8 75 2.1 NNE 22 32 12 17 1028.0 - 0.0
28/03:30am 12.1 7.3 7.4 73 2.3 N 22 30 12 16 1028.0 - 0.0
28/03:00am 12.2 7.4 7.3 72 2.4 N 22 30 12 16 1028.0 1028.1 0.0
28/02:30am 12.3 7.2 7.6 73 2.3 NNE 24 33 13 18 1028.1 - 0.0
28/02:00am 12.2 7.8 7.3 72 2.4 NNE 20 30 11 16 1028.3 - 0.0
28/01:30am 12.3 7.9 7.6 73 2.3 NNE 20 32 11 17 1028.5 - 0.0
28/01:00am 12.3 7.9 7.6 73 2.3 NNE 20 32 11 17 1028.6 - 0.0
28/12:30am 12.5 7.8 7.8 73 2.3 NNE 22 32 12 17 1028.6 - 0.0
28/12:00am 12.3 7.7 8.2 76 2.0 NNE 22 32 12 17 1028.6 1028.7 0.0
 
Date/Time
EST
Temp
°C
App
Temp
°C
Dew
Point
Rel
Hum
%
Delta-T
°C
Wind Press
QNH
hPa
Press
MSL
hPa
Rain
since 9 am
mm
Dir
 
Spd
km/h
Gust
km/h
Spd
kts
Gust
kts
27/11:30pm 12.3 7.8 8.6 78 1.8 NNE 22 33 12 18 1028.7 - 0.0
27/11:00pm 12.4 7.5 8.5 77 1.9 NNE 24 33 13 18 1028.5 - 0.0
27/10:30pm 12.4 7.1 8.5 77 1.9 NNE 26 39 14 21 1028.5 - 0.0
27/10:00pm 12.3 7.3 8.2 76 2.0 NNE 24 32 13 17 1028.7 - 0.0
27/09:30pm 12.4 7.8 8.1 75 2.1 N 22 32 12 17 1028.8 - 0.0
27/09:00pm 12.4 7.7 7.9 74 2.2 NNE 22 33 12 18 1028.7 1028.8 0.0
27/08:30pm 12.5 7.1 7.8 73 2.3 NNE 26 35 14 19 1028.4 - 0.0
27/08:00pm 12.5 7.0 7.4 71 2.5 NNE 26 35 14 19 1028.2 - 0.0
27/07:30pm 12.6 7.0 7.1 69 2.7 NNE 26 35 14 19 1027.9 - 0.0
27/07:00pm 12.6 7.6 6.4 66 3.0 NNE 22 32 12 17 1027.9 - 0.0
27/06:30pm 12.7 8.0 6.1 64 3.1 NNE 20 30 11 16 1028.0 - 0.0
27/06:00pm 12.9 8.0 6.7 66 3.0 NNE 22 28 12 15 1027.8 1027.9 0.0
27/05:30pm 13.1 7.4 6.9 66 3.0 NNE 26 32 14 17 1027.5 - 0.0
27/05:00pm 13.3 8.4 6.9 65 3.1 N 22 32 12 17 1027.5 - 0.0
27/04:30pm 13.8 9.3 7.1 64 3.3 NNE 20 30 11 16 1027.2 - 0.0
27/04:00pm 13.9 8.4 7.7 66 3.1 NNE 26 33 14 18 1027.3 - 0.0
27/03:30pm 14.5 10.6 8.7 68 2.9 NNE 19 26 10 14 1027.6 - 0.0
27/03:00pm 14.3 9.4 8.3 67 3.0 NNE 24 30 13 16 1027.4 1027.5 0.0
27/02:30pm 14.3 9.6 9.1 71 2.7 NNE 24 28 13 15 1027.4 - 0.0
27/02:00pm 14.3 9.6 9.3 72 2.6 NNE 24 30 13 16 1027.3 - 0.0
27/01:30pm 14.4 9.2 9.0 70 2.8 NNE 26 32 14 17 1027.2 - 0.0
27/01:00pm 14.7 9.5 8.9 68 3.0 NNE 26 33 14 18 1027.4 - 0.0
27/12:30pm 14.9 8.9 8.8 67 3.1 NNE 30 37 16 20 1027.6 - 0.0
27/12:00pm 14.8 8.4 8.5 66 3.2 NNE 32 41 17 22 1027.8 1027.9 0.0
27/11:30am 14.6 9.0 10.0 74 2.4 NNE 30 39 16 21 1027.9 - 0.0
27/11:00am 14.3 8.4 10.5 78 2.0 NNE 32 39 17 21 1028.1 - 0.0
27/10:30am 14.2 8.1 10.4 78 2.0 NNE 33 43 18 23 1028.2 - 0.0
27/10:00am 14.1 8.0 9.9 76 2.2 NNE 32 39 17 21 1028.3 - 0.0
27/09:30am 13.9 7.8 9.9 77 2.1 NNE 32 39 17 21 1028.2 - 0.0
27/09:00am 13.7 7.6 9.7 77 2.0 NNE 32 41 17 22 1028.0 1028.1 0.2
27/08:30am 13.3 7.1 9.5 78 1.9 NNE 32 41 17 22 1027.8 - 0.2
27/08:00am 13.1 7.7 9.5 79 1.8 NNE 28 39 15 21 1027.7 - 0.2
27/07:30am 12.3 7.0 9.7 84 1.3 NNE 28 37 15 20 1027.6 - 0.2
27/07:00am 11.6 5.8 9.3 86 1.2 NNE 30 39 16 21 1027.4 - 0.2
27/06:30am 11.5 5.6 9.2 86 1.2 NNE 30 37 16 20 1027.1 - 0.2
27/06:00am 11.4 5.9 9.3 87 1.1 NNE 28 35 15 19 1026.9 1027.1 0.2
27/05:30am 11.5 6.5 9.4 87 1.1 NNE 26 37 14 20 1026.7 - 0.2
27/05:00am 11.6 6.3 9.7 88 1.0 NNE 28 39 15 21 1026.7 - 0.2
27/04:30am 11.8 6.1 9.9 88 1.0 NNE 30 43 16 23 1026.4 - 0.2
27/04:00am 11.8 5.1 9.7 87 1.1 NNE 35 46 19 25 1026.0 - 0.2
27/03:30am 12.1 5.9 10.0 87 1.1 NNE 33 54 18 29 1025.8 - 0.2
27/03:02am 12.1 5.2 10.2 88 1.0 NNE 37 57 20 31 1025.5 - 0.2
27/03:00am 12.1 5.2 10.2 88 1.0 NNE 37 50 20 27 1025.5 1025.7 0.2
27/02:39am 12.1 5.9 10.2 88 1.0 NNE 33 56 18 30 1025.7 - 0.2
27/02:30am 12.2 5.3 10.4 89 0.9 NNE 37 46 20 25 1025.8 - 0.2
27/02:00am 12.2 5.0 10.4 89 0.9 NNE 39 52 21 28 1026.1 - 0.2
27/01:30am 12.3 4.4 10.7 90 0.8 NNE 43 57 23 31 1026.3 - 0.2
27/01:00am 12.4 4.9 10.8 90 0.8 NNE 41 52 22 28 1026.5 - 0.2
27/12:30am 12.5 5.1 11.1 91 0.7 NNE 41 48 22 26 1026.7 - 0.2
27/12:00am 12.5 4.7 11.2 92 0.7 NNE 43 52 23 28 1026.7 1026.9 0.2
 
Date/Time
EST
Temp
°C
App
Temp
°C
Dew
Point
Rel
Hum
%
Delta-T
°C
Wind Press
QNH
hPa
Press
MSL
hPa
Rain
since 9 am
mm
Dir
 
Spd
km/h
Gust
km/h
Spd
kts
Gust
kts
26/11:30pm 12.4 5.0 11.3 93 0.6 NNE 41 52 22 28 1027.1 - 0.2
26/11:00pm 12.4 4.7 11.5 94 0.5 NNE 43 50 23 27 1027.1 - 0.0
26/10:30pm 12.5 5.2 11.6 94 0.5 NE 41 48 22 26 1027.5 - 0.0
26/10:00pm 12.4 6.2 11.5 94 0.5 NNE 35 43 19 23 1027.9 - 0.0
26/09:30pm 12.4 6.3 11.6 95 0.4 NE 35 41 19 22 1027.8 - 0.0
26/09:00pm 12.5 6.7 11.6 94 0.5 NE 33 39 18 21 1028.0 1028.1 0.0
26/08:30pm 12.5 7.3 11.6 94 0.5 NE 30 35 16 19 1028.1 - 0.0
26/08:00pm 12.5 7.3 11.6 94 0.5 ENE 30 35 16 19 1028.1 - 0.0
26/07:30pm 12.6 8.6 11.7 94 0.5 ENE 24 28 13 15 1028.3 - 0.0
26/07:00pm 12.7 7.2 11.8 94 0.5 ENE 32 35 17 19 1028.0 - 0.0
26/06:30pm 12.7 8.6 11.6 93 0.6 ENE 24 30 13 16 1027.8 - 0.0
26/06:00pm 12.6 7.8 11.5 93 0.6 ENE 28 32 15 17 1027.7 1027.8 0.0
26/05:30pm 12.6 7.4 11.5 93 0.6 ENE 30 33 16 18 1027.7 - 0.0
26/05:00pm 12.8 7.1 11.7 93 0.6 ENE 33 37 18 20 1027.4 - 0.0
26/04:30pm 12.9 7.7 11.5 91 0.7 ENE 30 33 16 18 1027.5 - 0.0
26/04:00pm 13.0 7.7 11.4 90 0.9 ENE 30 33 16 18 1027.5 - 0.0
26/03:30pm 13.1 7.5 11.5 90 0.9 ENE 32 37 17 20 1027.4 - 0.0
26/03:00pm 13.3 7.2 11.7 90 0.9 ENE 35 39 19 21 1027.3 1027.4 0.0
26/02:30pm 13.4 7.9 11.8 90 0.9 ENE 32 37 17 20 1027.4 - 0.0
26/02:00pm 13.7 9.5 12.3 91 0.8 ENE 26 32 14 17 1027.5 - 0.0
26/01:30pm 14.0 10.3 12.7 92 0.7 ENE 24 28 13 15 1027.8 - 0.0
26/01:00pm 14.3 11.4 13.0 92 0.7 NE 20 24 11 13 1028.0 - 0.0
26/12:30pm 14.4 11.3 13.3 93 0.6 NE 22 26 12 14 1028.4 - 0.0
26/12:00pm 14.2 9.5 13.2 94 0.6 ENE 30 35 16 19 1028.5 1028.6 0.0
26/11:30am 14.3 9.3 13.3 94 0.6 NE 32 35 17 19 1028.6 - 0.0
26/11:00am 13.7 8.3 12.9 95 0.4 NE 33 39 18 21 1028.7 - 0.0
26/10:30am 13.7 8.3 12.9 95 0.4 NE 33 39 18 21 1028.8 - 0.0
26/10:00am 13.4 7.9 12.6 95 0.4 NE 33 39 18 21 1028.8 - 0.0
26/09:30am 13.1 8.1 12.3 95 0.4 NE 30 35 16 19 1029.1 - 0.0
26/09:00am 12.6 7.8 11.8 95 0.4 NE 28 33 15 18 1029.2 1029.3 0.2
26/08:30am 12.1 8.9 11.3 95 0.4 NE 19 26 10 14 1029.4 - 0.2
26/08:00am 11.7 8.2 10.9 95 0.4 NE 20 24 11 13 1029.4 - 0.2
26/07:30am 11.8 8.5 11.0 95 0.4 NE 19 22 10 12 1029.2 - 0.2
26/07:00am 11.7 8.8 10.9 95 0.4 NE 17 22 9 12 1029.0 - 0.2
26/06:30am 11.7 7.4 10.9 95 0.4 NE 24 28 13 15 1028.6 - 0.2
26/06:00am 11.8 8.3 10.9 94 0.5 NE 20 24 11 13 1028.4 1028.5 0.2
26/05:30am 11.8 8.5 10.9 94 0.5 NE 19 24 10 13 1028.3 - 0.2
26/05:00am 12.1 9.3 11.2 94 0.5 NE 17 20 9 11 1028.1 - 0.2
26/04:30am 12.2 9.4 11.3 94 0.5 ENE 17 20 9 11 1028.1 - 0.0
26/04:00am 12.2 9.3 11.1 93 0.6 NE 17 20 9 11 1028.2 - 0.0
26/03:30am 12.5 9.1 11.4 93 0.6 ENE 20 22 11 12 1028.1 - 0.0
26/03:00am 12.5 9.7 11.2 92 0.7 ENE 17 20 9 11 1028.3 1028.4 0.0
26/02:30am 12.4 11.1 11.1 92 0.7 ENE 9 13 5 7 1028.4 - 0.0
26/02:00am 12.2 10.8 10.9 92 0.7 ENE 9 13 5 7 1028.6 - 0.0
26/01:30am 12.2 10.8 10.9 92 0.7 E 9 15 5 8 1028.7 - 0.0
26/01:00am 12.1 10.7 10.8 92 0.7 E 9 13 5 7 1028.9 - 0.0
26/12:30am 12.1 11.0 10.8 92 0.7 ESE 7 9 4 5 1029.2 - 0.0
26/12:00am 12.2 11.2 10.9 92 0.7 E 7 11 4 6 1029.3 1029.4 0.0
 
Date/Time
EST
Temp
°C
App
Temp
°C
Dew
Point
Rel
Hum
%
Delta-T
°C
Wind Press
QNH
hPa
Press
MSL
hPa
Rain
since 9 am
mm
Dir
 
Spd
km/h
Gust
km/h
Spd
kts
Gust
kts
25/11:30pm 12.2 10.8 10.8 91 0.7 ESE 9 11 5 6 1029.2 - 0.0
25/11:00pm 12.2 11.2 10.9 92 0.7 ESE 7 9 4 5 1029.1 - 0.0
25/10:30pm 12.3 11.3 11.0 92 0.7 SE 7 11 4 6 1029.2 - 0.0
25/10:00pm 12.2 10.8 10.9 92 0.7 E 9 11 5 6 1029.2 - 0.0
25/09:30pm 12.2 10.0 10.9 92 0.7 E 13 15 7 8 1029.2 - 0.0
25/09:00pm 12.1 9.9 10.8 92 0.7 ENE 13 15 7 8 1029.0 1029.1 0.0
25/08:30pm 12.0 10.2 10.7 92 0.7 NE 11 19 6 10 1028.9 - 0.0
25/08:00pm 11.8 10.3 10.5 92 0.7 ENE 9 15 5 8 1028.9 - 0.0
25/07:30pm 11.8 10.3 10.5 92 0.7 ESE 9 11 5 6 1028.6 - 0.0
25/07:00pm 11.9 10.4 10.5 91 0.7 E 9 11 5 6 1028.6 - 0.0

Other Formats:

Comma delimited format used in spreadsheet applications
http://www.bom.gov.au/fwo/IDV60801/IDV60801.94893.axf

JavaScript Object Notation format (JSON) in row-major order
http://www.bom.gov.au/fwo/IDV60801/IDV60801.94893.json